createdAt,value
2022-08-07T00:01:44.069Z,49.20
2022-08-07T00:04:03.405Z,49.20
2022-08-07T00:06:33.402Z,49.40
2022-08-07T00:09:16.736Z,49.20
2022-08-07T00:11:55.389Z,49.20
2022-08-07T00:14:25.423Z,49.20
2022-08-07T00:16:58.074Z,49.40
2022-08-07T00:19:34.330Z,49.30
2022-08-07T00:22:12.649Z,49.30
2022-08-07T00:24:51.745Z,49.30
2022-08-07T00:27:18.591Z,49.20
2022-08-07T00:29:50.138Z,49.30
2022-08-07T00:32:17.208Z,49.20
2022-08-07T00:34:49.255Z,49.30
2022-08-07T00:37:18.799Z,49.30
2022-08-07T00:39:54.211Z,49.40
2022-08-07T00:42:29.010Z,49.30
2022-08-07T00:44:56.165Z,49.30
2022-08-07T00:48:08.463Z,49.20
2022-08-07T00:50:20.738Z,49.10
2022-08-07T00:52:56.517Z,49.30
2022-08-07T00:55:25.306Z,49.20
2022-08-07T00:58:10.517Z,49.30
2022-08-07T01:00:37.272Z,49.20
2022-08-07T01:03:04.112Z,49.20
2022-08-07T01:05:33.366Z,49.30
2022-08-07T01:08:03.436Z,49.30
2022-08-07T01:10:32.115Z,49.20
2022-08-07T01:13:01.812Z,49.20
2022-08-07T01:15:35.805Z,49.30
2022-08-07T01:18:18.544Z,49.30
2022-08-07T01:20:57.300Z,49.30
2022-08-07T01:26:11.971Z,49.40
2022-08-07T01:28:45.921Z,49.40
2022-08-07T01:31:15.587Z,49.50
2022-08-07T01:33:55.550Z,49.60
2022-08-07T01:36:33.414Z,49.80
2022-08-07T01:39:10.246Z,49.90
2022-08-07T01:41:40.890Z,49.90
2022-08-07T01:44:26.179Z,49.80
2022-08-07T01:46:53.401Z,49.80
2022-08-07T01:49:21.482Z,49.90
2022-08-07T01:52:03.893Z,49.90
2022-08-07T01:54:37.737Z,49.80
2022-08-07T01:57:24.095Z,49.90
2022-08-07T01:59:57.718Z,49.90
2022-08-07T02:03:18.938Z,49.80
2022-08-07T02:05:59.301Z,49.80
2022-08-07T02:08:29.359Z,49.80
2022-08-07T02:10:59.413Z,49.80
2022-08-07T02:14:00.748Z,49.90
2022-08-07T02:16:28.669Z,50.00
2022-08-07T02:19:02.087Z,49.90
2022-08-07T02:21:56.191Z,49.90
2022-08-07T02:24:22.698Z,49.90
2022-08-07T02:26:51.049Z,49.80
2022-08-07T02:29:21.821Z,49.80
2022-08-07T02:31:50.593Z,49.80
2022-08-07T02:36:46.074Z,49.90
2022-08-07T02:39:17.318Z,49.80
2022-08-07T02:42:02.612Z,49.90
2022-08-07T02:44:34.611Z,49.90
2022-08-07T02:47:03.361Z,49.90
2022-08-07T02:57:25.084Z,49.80
2022-08-07T03:00:01.185Z,49.90
2022-08-07T03:02:28.515Z,49.90
2022-08-07T03:04:56.610Z,49.80
2022-08-07T03:07:43.310Z,49.90
2022-08-07T03:10:14.291Z,49.90
2022-08-07T03:12:42.519Z,50.00
2022-08-07T03:15:10.504Z,50.20
2022-08-07T03:17:53.267Z,50.00
2022-08-07T03:20:22.961Z,50.00
2022-08-07T03:22:50.603Z,50.10
2022-08-07T03:25:21.062Z,50.00
2022-08-07T03:30:36.670Z,50.10
2022-08-07T03:33:08.528Z,50.40
2022-08-07T03:35:44.025Z,50.40
2022-08-07T03:38:20.913Z,50.40
2022-08-07T03:40:53.864Z,50.50
2022-08-07T03:43:26.652Z,50.40
2022-08-07T03:45:53.852Z,50.40
2022-08-07T03:59:07.989Z,50.40
2022-08-07T04:01:30.212Z,50.20
2022-08-07T04:03:59.461Z,50.40
2022-08-07T04:06:36.109Z,50.40
2022-08-07T04:09:04.138Z,50.40
2022-08-07T04:12:24.345Z,50.60
2022-08-07T04:14:38.471Z,50.40
2022-08-07T04:19:52.465Z,50.50
2022-08-07T04:22:29.576Z,50.80
2022-08-07T04:25:01.705Z,50.90
2022-08-07T04:27:39.230Z,51.20
2022-08-07T04:30:21.290Z,51.20
2022-08-07T04:33:01.352Z,51.30
2022-08-07T04:35:35.743Z,51.20
2022-08-07T04:38:09.256Z,51.20
2022-08-07T04:40:51.230Z,51.00
2022-08-07T04:44:11.889Z,51.10
2022-08-07T04:46:34.535Z,51.10
2022-08-07T04:49:14.927Z,51.10
2022-08-07T04:52:06.879Z,51.20
2022-08-07T04:54:50.646Z,51.30
2022-08-07T04:58:29.188Z,51.40
2022-08-07T05:00:30.027Z,51.40
2022-08-07T05:03:49.885Z,51.50
2022-08-07T05:06:51.225Z,51.90
2022-08-07T05:09:45.692Z,51.90
2022-08-07T05:12:26.926Z,52.10
2022-08-07T05:15:15.976Z,52.30
2022-08-07T05:17:56.981Z,52.40
2022-08-07T05:20:33.666Z,52.60
2022-08-07T05:23:07.163Z,52.80
2022-08-07T05:26:13.848Z,52.90
2022-08-07T05:28:34.990Z,53.10
2022-08-07T05:31:03.546Z,53.20
2022-08-07T05:33:31.361Z,53.10
2022-08-07T05:36:04.540Z,53.30
2022-08-07T05:38:59.923Z,53.40
2022-08-07T05:41:21.893Z,53.50
2022-08-07T05:44:12.489Z,53.70
2022-08-07T05:46:42.793Z,54.00
2022-08-07T05:49:12.965Z,54.10
2022-08-07T05:51:47.143Z,54.30
2022-08-07T05:54:44.571Z,54.70
2022-08-07T05:57:04.003Z,55.00
2022-08-07T05:59:39.028Z,55.30
2022-08-07T06:02:28.765Z,55.70
2022-08-07T06:05:01.629Z,56.00
2022-08-07T06:08:09.259Z,56.70
2022-08-07T06:10:17.725Z,57.00
2022-08-07T06:12:45.657Z,57.10
2022-08-07T06:15:16.221Z,57.80
2022-08-07T06:17:53.714Z,57.60
2022-08-07T06:20:49.314Z,58.10
2022-08-07T06:23:45.781Z,58.10
2022-08-07T06:26:01.391Z,58.40
2022-08-07T06:28:28.861Z,58.80
2022-08-07T06:30:56.420Z,59.30
2022-08-07T06:33:26.137Z,59.80
2022-08-07T06:36:13.451Z,60.00
2022-08-07T06:38:58.617Z,59.60
2022-08-07T06:42:00.752Z,59.70
2022-08-07T06:44:33.898Z,59.90
2022-08-07T06:47:12.471Z,59.50
2022-08-07T06:49:50.831Z,58.90
2022-08-07T06:52:32.038Z,57.60
2022-08-07T06:55:33.327Z,57.40
2022-08-07T06:58:00.449Z,56.90
2022-08-07T07:00:36.707Z,57.50
2022-08-07T07:03:10.877Z,58.10
2022-08-07T07:06:02.384Z,58.40
2022-08-07T07:08:29.716Z,57.70
2022-08-07T07:10:59.013Z,56.80
2022-08-07T07:13:43.505Z,56.10
2022-08-07T07:16:22.067Z,55.70
2022-08-07T07:18:55.934Z,55.60
2022-08-07T07:21:40.372Z,55.60
2022-08-07T07:24:17.358Z,55.70
2022-08-07T07:26:51.889Z,55.40
2022-08-07T07:29:55.869Z,55.70
2022-08-07T07:32:15.881Z,55.50
2022-08-07T07:34:49.106Z,56.20
2022-08-07T07:37:45.204Z,56.30
2022-08-07T07:40:10.283Z,56.00
2022-08-07T07:42:47.053Z,55.10
2022-08-07T07:45:22.756Z,55.50
2022-08-07T07:48:11.064Z,55.90
2022-08-07T07:50:40.143Z,55.50
2022-08-07T07:53:23.133Z,55.20
2022-08-07T07:55:57.742Z,55.00
2022-08-07T07:58:29.364Z,54.10
2022-08-07T08:00:58.367Z,54.70
2022-08-07T08:04:06.383Z,54.50
2022-08-07T08:06:15.850Z,54.20
2022-08-07T08:08:44.060Z,54.10
2022-08-07T08:11:16.508Z,54.30
2022-08-07T08:18:56.531Z,54.10
2022-08-07T08:21:55.499Z,53.40
2022-08-07T08:24:57.198Z,53.30
2022-08-07T08:27:39.264Z,53.50
2022-08-07T08:30:14.339Z,53.50
2022-08-07T08:32:50.026Z,53.90
2022-08-07T08:35:28.816Z,53.00
2022-08-07T08:38:07.461Z,53.20
2022-08-07T08:40:43.753Z,52.90
2022-08-07T08:43:32.022Z,52.40
2022-08-07T08:46:23.889Z,51.80
2022-08-07T08:49:16.398Z,52.10
2022-08-07T08:52:14.239Z,51.40
2022-08-07T08:54:59.161Z,50.70
2022-08-07T08:57:48.257Z,51.30
2022-08-07T09:00:16.916Z,51.40
2022-08-07T09:02:59.497Z,51.60
2022-08-07T09:05:38.034Z,51.40
2022-08-07T09:08:17.900Z,51.60
2022-08-07T09:11:24.942Z,50.40
2022-08-07T09:14:13.349Z,51.40
2022-08-07T09:16:59.750Z,51.10
2022-08-07T09:19:55.059Z,51.10
2022-08-07T09:24:33.192Z,51.30
2022-08-07T09:25:54.548Z,51.20
2022-08-07T09:30:04.318Z,50.40
2022-08-07T09:32:21.771Z,50.40
2022-08-07T09:36:04.549Z,50.50
2022-08-07T09:38:37.427Z,50.20
2022-08-07T09:41:58.437Z,49.50
2022-08-07T09:48:00.408Z,49.30
2022-08-07T09:50:35.738Z,48.70
2022-08-07T09:53:07.262Z,48.70
2022-08-07T09:56:37.387Z,48.10
2022-08-07T09:59:21.950Z,49.90
2022-08-07T10:02:31.898Z,49.50
2022-08-07T10:05:59.034Z,49.00
2022-08-07T10:08:29.432Z,49.40
2022-08-07T10:11:16.666Z,49.00
2022-08-07T10:16:46.673Z,49.40
2022-08-07T10:19:41.307Z,49.20
2022-08-07T10:22:38.586Z,48.90
2022-08-07T10:25:15.725Z,49.40
2022-08-07T10:28:23.589Z,50.00
2022-08-07T10:31:11.007Z,49.80
2022-08-07T10:34:14.227Z,50.00
2022-08-07T10:36:45.555Z,49.40
2022-08-07T10:39:42.233Z,49.50
2022-08-07T10:42:46.717Z,48.80
2022-08-07T10:45:44.523Z,48.20
2022-08-07T10:54:04.721Z,48.70
2022-08-07T10:56:49.414Z,49.50
2022-08-07T10:59:37.477Z,49.20
2022-08-07T11:23:45.634Z,49.10
2022-08-07T11:26:50.226Z,47.60
2022-08-07T11:29:41.726Z,47.70
2022-08-07T11:32:31.000Z,47.40
2022-08-07T11:35:02.581Z,47.90
2022-08-07T11:38:09.906Z,47.40
2022-08-07T11:41:03.874Z,47.70
2022-08-07T11:44:10.952Z,46.70
2022-08-07T11:46:51.388Z,46.70
2022-08-07T11:50:11.406Z,46.60
2022-08-07T11:52:51.299Z,46.80
2022-08-07T11:56:09.083Z,45.70
2022-08-07T11:58:56.615Z,46.60
2022-08-07T12:02:17.645Z,45.70
2022-08-07T12:10:19.277Z,45.80
2022-08-07T12:13:37.236Z,44.80
2022-08-07T12:22:35.706Z,45.50
2022-08-07T12:35:31.107Z,44.00
2022-08-07T12:38:09.413Z,42.00
2022-08-07T12:40:47.716Z,41.40
2022-08-07T12:44:02.316Z,41.20
2022-08-07T12:46:12.357Z,41.40
2022-08-07T12:49:10.272Z,40.80
2022-08-07T12:52:17.129Z,40.40
2022-08-07T12:54:54.527Z,40.40
2022-08-07T12:57:59.214Z,40.70
2022-08-07T13:00:32.825Z,40.60
2022-08-07T13:03:07.090Z,40.50
2022-08-07T13:06:04.642Z,41.40
2022-08-07T13:10:21.438Z,41.10
2022-08-07T13:12:25.965Z,41.30
2022-08-07T13:15:29.733Z,40.20
2022-08-07T13:18:39.440Z,40.70
2022-08-07T13:21:50.349Z,41.00
2022-08-07T13:24:31.219Z,39.60
2022-08-07T13:27:20.804Z,39.60
2022-08-07T13:29:58.734Z,39.10
2022-08-07T13:32:47.452Z,39.00
2022-08-07T13:36:00.269Z,38.90
2022-08-07T13:38:38.161Z,41.70
2022-08-07T13:41:17.772Z,39.30
2022-08-07T13:43:52.291Z,39.10
2022-08-07T13:46:28.802Z,39.00
2022-08-07T13:49:03.659Z,38.80
2022-08-07T13:52:04.492Z,38.60
2022-08-07T13:56:59.533Z,38.00
2022-08-07T13:59:33.079Z,38.90
2022-08-07T14:02:07.824Z,38.10
2022-08-07T14:05:11.841Z,37.60
2022-08-07T14:08:00.027Z,38.00
2022-08-07T14:10:41.962Z,37.50
2022-08-07T14:13:16.630Z,38.10
2022-08-07T14:16:02.304Z,37.60
2022-08-07T14:18:40.262Z,37.40
2022-08-07T14:21:21.159Z,37.90
2022-08-07T14:24:06.368Z,38.40
2022-08-07T14:26:54.444Z,40.90
2022-08-07T14:30:05.539Z,42.10
2022-08-07T14:32:17.502Z,38.80
2022-08-07T14:34:48.190Z,38.40
2022-08-07T14:37:19.199Z,38.90
2022-08-07T14:40:16.513Z,39.00
2022-08-07T14:43:56.001Z,38.70
2022-08-07T14:45:48.675Z,39.50
2022-08-07T14:48:20.415Z,39.50
2022-08-07T14:50:52.205Z,40.70
2022-08-07T14:54:03.801Z,39.60
2022-08-07T14:56:13.078Z,39.80
2022-08-07T14:58:45.260Z,40.20
2022-08-07T15:01:22.013Z,39.80
2022-08-07T15:06:40.475Z,39.60
2022-08-07T15:09:57.608Z,39.90
2022-08-07T15:13:06.112Z,40.70
2022-08-07T15:18:14.554Z,41.40
2022-08-07T15:20:56.240Z,41.60
2022-08-07T15:25:14.054Z,41.30
2022-08-07T15:26:20.718Z,41.30
2022-08-07T15:28:59.568Z,41.60
2022-08-07T15:32:00.947Z,42.00
2022-08-07T15:34:35.629Z,41.20
2022-08-07T15:37:08.186Z,41.40
2022-08-07T15:39:56.605Z,41.60
2022-08-07T15:42:47.909Z,41.80
2022-08-07T15:45:25.754Z,42.80
2022-08-07T15:48:12.672Z,42.00
2022-08-07T15:51:08.574Z,42.10
2022-08-07T15:53:52.019Z,41.80
2022-08-07T15:56:29.540Z,42.00
2022-08-07T15:59:05.597Z,42.70
2022-08-07T16:01:38.730Z,41.50
2022-08-07T16:04:14.244Z,42.00
2022-08-07T16:06:55.285Z,42.00
2022-08-07T16:09:43.456Z,41.90
2022-08-07T16:13:04.884Z,42.10
2022-08-07T16:16:03.490Z,43.10
2022-08-07T16:18:49.628Z,42.80
2022-08-07T16:22:01.242Z,42.60
2022-08-07T16:24:52.684Z,42.80
2022-08-07T16:27:39.946Z,43.10
2022-08-07T16:30:30.971Z,43.10
2022-08-07T16:34:02.994Z,43.80
2022-08-07T16:37:02.367Z,43.40
2022-08-07T16:40:05.038Z,43.80
2022-08-07T16:42:50.808Z,43.30
2022-08-07T16:46:40.407Z,43.70
2022-08-07T16:49:04.240Z,43.20
2022-08-07T16:52:01.927Z,43.40
2022-08-07T16:54:54.281Z,43.80
2022-08-07T16:58:02.621Z,43.00
2022-08-07T17:00:29.268Z,42.90
2022-08-07T17:03:11.257Z,43.20
2022-08-07T17:06:28.238Z,43.00
2022-08-07T17:10:04.994Z,43.20
2022-08-07T17:12:35.643Z,43.90
2022-08-07T17:15:15.689Z,44.70
2022-08-07T17:17:48.444Z,43.30
2022-08-07T17:20:41.853Z,43.10
2022-08-07T17:23:32.284Z,43.60
2022-08-07T17:26:30.473Z,43.50
2022-08-07T17:30:15.230Z,43.10
2022-08-07T17:32:51.923Z,43.30
2022-08-07T17:35:50.758Z,43.00
2022-08-07T17:39:00.193Z,43.00
2022-08-07T17:42:05.007Z,43.60
2022-08-07T17:44:49.975Z,43.60
2022-08-07T17:47:44.261Z,43.60
2022-08-07T17:50:20.521Z,43.90
2022-08-07T17:52:55.469Z,44.40
2022-08-07T17:55:59.913Z,43.90
2022-08-07T17:59:09.062Z,43.90
2022-08-07T18:02:12.693Z,44.40
2022-08-07T18:04:45.562Z,44.40
2022-08-07T18:07:22.853Z,44.30
2022-08-07T18:10:05.739Z,44.00
2022-08-07T18:12:59.456Z,43.90
2022-08-07T18:15:33.100Z,43.80
2022-08-07T18:18:46.316Z,43.80
2022-08-07T18:21:37.253Z,44.00
2022-08-07T18:23:58.357Z,44.30
2022-08-07T18:26:40.466Z,44.60
2022-08-07T18:30:05.979Z,44.90
2022-08-07T18:32:16.099Z,45.30
2022-08-07T18:35:02.227Z,45.40
2022-08-07T18:38:59.168Z,45.50
2022-08-07T18:40:53.796Z,45.40
2022-08-07T18:43:48.992Z,45.50
2022-08-07T18:46:42.854Z,45.80
2022-08-07T18:50:30.573Z,46.00
2022-08-07T18:52:25.676Z,46.30
2022-08-07T18:55:40.814Z,46.60
2022-08-07T18:58:15.166Z,46.80
2022-08-07T19:01:02.058Z,47.00
2022-08-07T19:03:49.453Z,47.20
2022-08-07T19:06:34.105Z,47.40
2022-08-07T19:09:56.609Z,47.50
2022-08-07T19:12:18.066Z,47.70
2022-08-07T19:16:03.108Z,47.20
2022-08-07T19:18:35.340Z,47.70
2022-08-07T19:21:51.177Z,47.90
2022-08-07T19:24:30.506Z,48.00
2022-08-07T19:28:57.464Z,48.10
2022-08-07T19:31:03.912Z,48.30
2022-08-07T19:32:47.283Z,48.30
2022-08-07T19:35:25.696Z,48.40
2022-08-07T19:37:59.970Z,48.60
2022-08-07T19:40:31.654Z,48.60
2022-08-07T19:43:44.044Z,48.60
2022-08-07T19:46:10.043Z,48.60
2022-08-07T19:48:44.169Z,48.60
2022-08-07T19:51:19.935Z,48.60
2022-08-07T19:54:35.609Z,48.70
2022-08-07T19:57:51.501Z,48.60
2022-08-07T19:59:40.495Z,48.60
2022-08-07T20:02:19.504Z,48.70
2022-08-07T20:04:50.233Z,48.70
2022-08-07T20:07:46.523Z,48.70
2022-08-07T20:10:37.901Z,48.70
2022-08-07T20:13:06.067Z,48.80
2022-08-07T20:15:37.138Z,48.90
2022-08-07T20:18:14.484Z,49.00
2022-08-07T20:20:45.896Z,49.20
2022-08-07T20:23:41.815Z,49.10
2022-08-07T20:28:39.888Z,49.50
2022-08-07T20:31:21.059Z,49.30
2022-08-07T20:33:56.586Z,49.40
2022-08-07T20:36:27.238Z,49.50
2022-08-07T20:39:00.283Z,49.50
2022-08-07T20:41:41.030Z,50.00
2022-08-07T20:44:10.461Z,49.60
2022-08-07T20:46:43.761Z,49.60
2022-08-07T20:49:59.478Z,49.60
2022-08-07T20:52:09.387Z,49.70
2022-08-07T20:54:53.085Z,49.70
2022-08-07T20:57:38.054Z,49.70
2022-08-07T21:00:17.811Z,49.60
2022-08-07T21:02:58.635Z,49.60
2022-08-07T21:05:52.822Z,49.50
2022-08-07T21:08:16.395Z,49.50
2022-08-07T21:10:50.504Z,49.30
2022-08-07T21:13:24.670Z,49.40
2022-08-07T21:16:12.416Z,49.40
2022-08-07T21:18:46.041Z,49.30
2022-08-07T21:21:16.484Z,49.40
2022-08-07T21:24:02.805Z,49.40
2022-08-07T21:27:10.257Z,49.20
2022-08-07T21:29:58.659Z,49.20
2022-08-07T21:32:52.725Z,49.20
2022-08-07T21:35:34.535Z,49.20
2022-08-07T21:38:36.896Z,49.20
2022-08-07T21:41:37.712Z,49.10
2022-08-07T21:44:37.907Z,49.10
2022-08-07T21:47:50.446Z,49.10
2022-08-07T21:50:31.316Z,49.00
2022-08-07T21:53:07.588Z,49.00
2022-08-07T21:56:05.974Z,48.90
2022-08-07T21:59:07.597Z,48.80
2022-08-07T22:02:10.323Z,48.80
2022-08-07T22:04:38.078Z,48.70
2022-08-07T22:07:12.244Z,48.70
2022-08-07T22:09:54.229Z,48.70
2022-08-07T22:12:31.475Z,48.70
2022-08-07T22:16:39.208Z,48.60
2022-08-07T22:18:00.468Z,48.60
2022-08-07T22:20:46.564Z,48.60
2022-08-07T22:23:42.762Z,48.60
2022-08-07T22:26:19.858Z,48.70
2022-08-07T22:28:55.631Z,48.60
2022-08-07T22:31:56.435Z,48.50
2022-08-07T22:34:53.635Z,48.50
2022-08-07T22:38:04.460Z,48.40
2022-08-07T22:41:02.887Z,48.40
2022-08-07T22:43:38.911Z,48.50
2022-08-07T22:46:42.961Z,49.00
2022-08-07T22:49:15.954Z,48.30
2022-08-07T22:52:02.177Z,47.80
2022-08-07T22:55:17.709Z,48.10
2022-08-07T22:58:28.199Z,48.20
2022-08-07T23:01:23.411Z,48.20
2022-08-07T23:04:01.823Z,48.10
2022-08-07T23:06:59.085Z,47.90
2022-08-07T23:10:05.452Z,47.90
2022-08-07T23:13:04.193Z,47.70
2022-08-07T23:16:06.796Z,47.90
2022-08-07T23:19:11.235Z,47.70
2022-08-07T23:21:54.735Z,47.60
2022-08-07T23:24:38.694Z,47.40
2022-08-07T23:27:33.327Z,47.40
2022-08-07T23:30:38.188Z,47.40
2022-08-07T23:34:23.883Z,47.30
2022-08-07T23:36:43.234Z,47.40
2022-08-07T23:39:22.193Z,47.30
2022-08-07T23:42:05.303Z,47.20
2022-08-07T23:45:15.414Z,47.20
2022-08-07T23:48:05.406Z,47.30
2022-08-07T23:50:55.779Z,47.10
2022-08-07T23:53:49.768Z,47.10
2022-08-07T23:56:54.431Z,47.10
